sensor_id;sensor_type;location;lat;lon;timestamp;pressure;altitude;pressure_sealevel;temperature;humidity
5574;BME280;2563;52.242;7.956;2023-05-10T00:01:04;101179.63;;;13.89;100.00
5574;BME280;2563;52.242;7.956;2023-05-10T00:03:30;101159.75;;;13.90;100.00
5574;BME280;2563;52.242;7.956;2023-05-10T00:05:56;101143.44;;;13.86;100.00
5574;BME280;2563;52.242;7.956;2023-05-10T00:08:21;101143.50;;;13.85;100.00
5574;BME280;2563;52.242;7.956;2023-05-10T00:10:46;101132.31;;;13.84;100.00
5574;BME280;2563;52.242;7.956;2023-05-10T00:13:12;101135.84;;;13.81;100.00
5574;BME280;2563;52.242;7.956;2023-05-10T00:15:37;101137.53;;;13.82;100.00
5574;BME280;2563;52.242;7.956;2023-05-10T00:18:03;101134.97;;;13.81;100.00
5574;BME280;2563;52.242;7.956;2023-05-10T00:20:28;101146.09;;;13.85;100.00
5574;BME280;2563;52.242;7.956;2023-05-10T00:22:53;101156.53;;;13.81;100.00
5574;BME280;2563;52.242;7.956;2023-05-10T00:25:19;101179.06;;;13.78;100.00
5574;BME280;2563;52.242;7.956;2023-05-10T00:27:46;101208.31;;;13.81;100.00
5574;BME280;2563;52.242;7.956;2023-05-10T00:30:12;101229.88;;;13.80;100.00
5574;BME280;2563;52.242;7.956;2023-05-10T00:32:37;101275.59;;;13.81;100.00
5574;BME280;2563;52.242;7.956;2023-05-10T00:35:02;101298.72;;;13.86;100.00
5574;BME280;2563;52.242;7.956;2023-05-10T00:37:28;101305.59;;;13.89;100.00
5574;BME280;2563;52.242;7.956;2023-05-10T00:39:53;101315.88;;;13.90;100.00
5574;BME280;2563;52.242;7.956;2023-05-10T00:42:18;101331.47;;;13.89;100.00
5574;BME280;2563;52.242;7.956;2023-05-10T00:44:44;101350.47;;;13.86;100.00
5574;BME280;2563;52.242;7.956;2023-05-10T00:47:09;101342.78;;;13.85;100.00
5574;BME280;2563;52.242;7.956;2023-05-10T00:49:36;101348.88;;;13.82;100.00
5574;BME280;2563;52.242;7.956;2023-05-10T00:52:01;101363.47;;;13.85;100.00
5574;BME280;2563;52.242;7.956;2023-05-10T00:54:28;101379.09;;;13.81;100.00
5574;BME280;2563;52.242;7.956;2023-05-10T00:56:54;101392.81;;;13.83;100.00
5574;BME280;2563;52.242;7.956;2023-05-10T00:59:20;101422.19;;;13.82;100.00
5574;BME280;2563;52.242;7.956;2023-05-10T01:01:46;101414.41;;;13.84;100.00
5574;BME280;2563;52.242;7.956;2023-05-10T01:04:13;101413.56;;;13.82;100.00
5574;BME280;2563;52.242;7.956;2023-05-10T01:06:40;101415.25;;;13.85;100.00
5574;BME280;2563;52.242;7.956;2023-05-10T01:09:06;101414.31;;;13.87;100.00
5574;BME280;2563;52.242;7.956;2023-05-10T01:11:36;101460.91;;;13.86;100.00
5574;BME280;2563;52.242;7.956;2023-05-10T01:14:02;101454.88;;;13.87;100.00
5574;BME280;2563;52.242;7.956;2023-05-10T01:16:29;101448.81;;;13.86;100.00
5574;BME280;2563;52.242;7.956;2023-05-10T01:18:57;101458.28;;;13.89;100.00
5574;BME280;2563;52.242;7.956;2023-05-10T01:21:33;101468.63;;;13.89;100.00
5574;BME280;2563;52.242;7.956;2023-05-10T01:35:07;101535.16;;;13.83;100.00
5574;BME280;2563;52.242;7.956;2023-05-10T01:37:43;101560.16;;;13.85;100.00
5574;BME280;2563;52.242;7.956;2023-05-10T01:40:19;101586.03;;;13.85;100.00
5574;BME280;2563;52.242;7.956;2023-05-10T01:42:55;101595.56;;;13.82;100.00
5574;BME280;2563;52.242;7.956;2023-05-10T01:45:50;101606.75;;;13.85;100.00
5574;BME280;2563;52.242;7.956;2023-05-10T01:48:22;101611.94;;;13.85;100.00
5574;BME280;2563;52.242;7.956;2023-05-10T01:50:49;101628.31;;;13.85;100.00
5574;BME280;2563;52.242;7.956;2023-05-10T01:53:18;101614.53;;;13.85;100.00
5574;BME280;2563;52.242;7.956;2023-05-10T01:55:49;101637.81;;;13.85;100.00
5574;BME280;2563;52.242;7.956;2023-05-10T01:58:22;101644.72;;;13.84;100.00
5574;BME280;2563;52.242;7.956;2023-05-10T02:00:50;101656.78;;;13.85;100.00
5574;BME280;2563;52.242;7.956;2023-05-10T02:03:18;101650.75;;;13.85;100.00
5574;BME280;2563;52.242;7.956;2023-05-10T02:05:45;101674.00;;;13.86;100.00
5574;BME280;2563;52.242;7.956;2023-05-10T02:08:13;101699.09;;;13.82;100.00
5574;BME280;2563;52.242;7.956;2023-05-10T02:10:40;101712.81;;;13.86;100.00
5574;BME280;2563;52.242;7.956;2023-05-10T02:13:07;101715.47;;;13.85;100.00
5574;BME280;2563;52.242;7.956;2023-05-10T02:15:34;101719.75;;;13.86;100.00
5574;BME280;2563;52.242;7.956;2023-05-10T02:18:00;101728.34;;;13.86;100.00
5574;BME280;2563;52.242;7.956;2023-05-10T02:20:27;101730.91;;;13.88;100.00
5574;BME280;2563;52.242;7.956;2023-05-10T02:22:55;101706.78;;;13.86;100.00
5574;BME280;2563;52.242;7.956;2023-05-10T02:25:23;101701.66;;;13.84;100.00
5574;BME280;2563;52.242;7.956;2023-05-10T02:27:49;101719.81;;;13.82;100.00
5574;BME280;2563;52.242;7.956;2023-05-10T02:30:17;101735.34;;;13.81;100.00
5574;BME280;2563;52.242;7.956;2023-05-10T02:32:44;101749.16;;;13.81;100.00
5574;BME280;2563;52.242;7.956;2023-05-10T02:35:09;101751.78;;;13.80;100.00
5574;BME280;2563;52.242;7.956;2023-05-10T02:37:37;101750.16;;;13.74;100.00
5574;BME280;2563;52.242;7.956;2023-05-10T02:40:05;101738.16;;;13.69;100.00
5574;BME280;2563;52.242;7.956;2023-05-10T02:42:33;101734.81;;;13.62;100.00
5574;BME280;2563;52.242;7.956;2023-05-10T02:45:01;101734.09;;;13.55;100.00
5574;BME280;2563;52.242;7.956;2023-05-10T02:47:28;101706.72;;;13.44;100.00
5574;BME280;2563;52.242;7.956;2023-05-10T02:49:54;101699.97;;;13.33;100.00
5574;BME280;2563;52.242;7.956;2023-05-10T02:52:23;101704.47;;;13.20;100.00
5574;BME280;2563;52.242;7.956;2023-05-10T02:54:52;101718.41;;;13.12;100.00
5574;BME280;2563;52.242;7.956;2023-05-10T02:57:24;101719.50;;;12.98;100.00
5574;BME280;2563;52.242;7.956;2023-05-10T02:59:51;101700.81;;;12.81;100.00
5574;BME280;2563;52.242;7.956;2023-05-10T03:02:16;101683.63;;;12.79;100.00
5574;BME280;2563;52.242;7.956;2023-05-10T03:04:42;101649.28;;;12.72;100.00
5574;BME280;2563;52.242;7.956;2023-05-10T03:07:08;101641.41;;;12.78;100.00
5574;BME280;2563;52.242;7.956;2023-05-10T03:09:33;101630.16;;;12.81;100.00
5574;BME280;2563;52.242;7.956;2023-05-10T03:14:53;101595.66;;;12.83;100.00
5574;BME280;2563;52.242;7.956;2023-05-10T03:17:22;101581.97;;;12.78;100.00
5574;BME280;2563;52.242;7.956;2023-05-10T03:19:56;101583.69;;;12.79;100.00
5574;BME280;2563;52.242;7.956;2023-05-10T03:22:41;101570.81;;;12.76;100.00
5574;BME280;2563;52.242;7.956;2023-05-10T03:25:10;101570.00;;;12.74;100.00
5574;BME280;2563;52.242;7.956;2023-05-10T03:27:39;101555.41;;;12.71;100.00
5574;BME280;2563;52.242;7.956;2023-05-10T03:30:08;101539.94;;;12.70;100.00
5574;BME280;2563;52.242;7.956;2023-05-10T03:32:35;101543.34;;;12.72;100.00
5574;BME280;2563;52.242;7.956;2023-05-10T03:35:06;101543.34;;;12.72;100.00
5574;BME280;2563;52.242;7.956;2023-05-10T03:37:31;101547.63;;;12.73;100.00
5574;BME280;2563;52.242;7.956;2023-05-10T03:39:57;101545.09;;;12.70;100.00
5574;BME280;2563;52.242;7.956;2023-05-10T03:42:22;101548.47;;;12.73;100.00
5574;BME280;2563;52.242;7.956;2023-05-10T03:44:47;101534.75;;;12.70;100.00
5574;BME280;2563;52.242;7.956;2023-05-10T03:47:14;101521.03;;;12.66;100.00
5574;BME280;2563;52.242;7.956;2023-05-10T03:49:39;101540.00;;;12.67;100.00
5574;BME280;2563;52.242;7.956;2023-05-10T03:52:05;101544.25;;;12.68;100.00
5574;BME280;2563;52.242;7.956;2023-05-10T03:54:31;101526.19;;;12.68;100.00
5574;BME280;2563;52.242;7.956;2023-05-10T03:56:57;101533.03;;;12.70;100.00
5574;BME280;2563;52.242;7.956;2023-05-10T03:59:23;101532.19;;;12.68;100.00
5574;BME280;2563;52.242;7.956;2023-05-10T04:01:48;101540.00;;;12.65;100.00
5574;BME280;2563;52.242;7.956;2023-05-10T04:04:14;101546.94;;;12.63;100.00
5574;BME280;2563;52.242;7.956;2023-05-10T04:06:39;101534.03;;;12.62;100.00
5574;BME280;2563;52.242;7.956;2023-05-10T04:09:04;101546.94;;;12.62;100.00
5574;BME280;2563;52.242;7.956;2023-05-10T04:11:30;101548.66;;;12.63;100.00
5574;BME280;2563;52.242;7.956;2023-05-10T04:13:55;101558.97;;;12.64;100.00
5574;BME280;2563;52.242;7.956;2023-05-10T04:16:21;101559.06;;;12.60;100.00
5574;BME280;2563;52.242;7.956;2023-05-10T04:18:47;101555.59;;;12.61;100.00
5574;BME280;2563;52.242;7.956;2023-05-10T04:21:13;101561.63;;;12.60;100.00
5574;BME280;2563;52.242;7.956;2023-05-10T04:23:39;101559.06;;;12.58;100.00
5574;BME280;2563;52.242;7.956;2023-05-10T04:26:04;101566.81;;;12.58;100.00
5574;BME280;2563;52.242;7.956;2023-05-10T04:28:30;101564.31;;;12.53;100.00
5574;BME280;2563;52.242;7.956;2023-05-10T04:31:06;101568.63;;;12.51;100.00
5574;BME280;2563;52.242;7.956;2023-05-10T04:33:32;101585.81;;;12.54;100.00
5574;BME280;2563;52.242;7.956;2023-05-10T04:35:58;101582.41;;;12.52;100.00
5574;BME280;2563;52.242;7.956;2023-05-10T04:38:23;101598.78;;;12.49;100.00
5574;BME280;2563;52.242;7.956;2023-05-10T04:40:49;101616.84;;;12.51;100.00
5574;BME280;2563;52.242;7.956;2023-05-10T04:43:14;101617.75;;;12.48;100.00
5574;BME280;2563;52.242;7.956;2023-05-10T04:45:39;101622.09;;;12.45;100.00
5574;BME280;2563;52.242;7.956;2023-05-10T04:48:05;101636.69;;;12.49;100.00
5574;BME280;2563;52.242;7.956;2023-05-10T04:50:31;101609.25;;;12.43;100.00
5574;BME280;2563;52.242;7.956;2023-05-10T04:52:56;101612.69;;;12.42;100.00
5574;BME280;2563;52.242;7.956;2023-05-10T04:55:22;101610.88;;;12.47;100.00
5574;BME280;2563;52.242;7.956;2023-05-10T04:57:47;101587.63;;;12.49;100.00
5574;BME280;2563;52.242;7.956;2023-05-10T05:00:13;101588.44;;;12.52;100.00
5574;BME280;2563;52.242;7.956;2023-05-10T05:02:42;101581.59;;;12.50;100.00
5574;BME280;2563;52.242;7.956;2023-05-10T05:05:08;101576.38;;;12.51;100.00
5574;BME280;2563;52.242;7.956;2023-05-10T05:07:33;101567.72;;;12.55;100.00
5574;BME280;2563;52.242;7.956;2023-05-10T05:09:58;101566.84;;;12.56;100.00
5574;BME280;2563;52.242;7.956;2023-05-10T05:12:24;101563.31;;;12.62;100.00
5574;BME280;2563;52.242;7.956;2023-05-10T05:14:49;101565.81;;;12.67;100.00
5574;BME280;2563;52.242;7.956;2023-05-10T05:17:14;101567.47;;;12.71;100.00
5574;BME280;2563;52.242;7.956;2023-05-10T05:19:40;101565.81;;;12.67;100.00
5574;BME280;2563;52.242;7.956;2023-05-10T05:22:06;101561.44;;;12.72;100.00
5574;BME280;2563;52.242;7.956;2023-05-10T05:24:36;101541.69;;;12.68;100.00
5574;BME280;2563;52.242;7.956;2023-05-10T05:27:04;101533.91;;;12.69;100.00
5574;BME280;2563;52.242;7.956;2023-05-10T05:29:30;101506.34;;;12.70;100.00
5574;BME280;2563;52.242;7.956;2023-05-10T05:31:56;101460.72;;;12.69;100.00
5574;BME280;2563;52.242;7.956;2023-05-10T05:34:21;101459.84;;;12.70;100.00
5574;BME280;2563;52.242;7.956;2023-05-10T05:36:47;101448.53;;;12.77;100.00
5574;BME280;2563;52.242;7.956;2023-05-10T05:39:13;101453.84;;;12.68;100.00
5574;BME280;2563;52.242;7.956;2023-05-10T05:41:38;101462.38;;;12.73;100.00
5574;BME280;2563;52.242;7.956;2023-05-10T05:44:04;101446.94;;;12.70;100.00
5574;BME280;2563;52.242;7.956;2023-05-10T05:46:29;101448.53;;;12.75;100.00
5574;BME280;2563;52.242;7.956;2023-05-10T05:48:55;101444.13;;;12.81;100.00
5574;BME280;2563;52.242;7.956;2023-05-10T05:51:20;101438.88;;;12.85;100.00
5574;BME280;2563;52.242;7.956;2023-05-10T05:53:46;101450.03;;;12.89;100.00
5574;BME280;2563;52.242;7.956;2023-05-10T05:56:11;101443.13;;;12.89;100.00
5574;BME280;2563;52.242;7.956;2023-05-10T05:58:36;101461.28;;;12.86;100.00
5574;BME280;2563;52.242;7.956;2023-05-10T06:01:02;101456.13;;;12.83;100.00
5574;BME280;2563;52.242;7.956;2023-05-10T06:03:27;101455.22;;;12.87;100.00
5574;BME280;2563;52.242;7.956;2023-05-10T06:05:52;101462.03;;;12.91;100.00
5574;BME280;2563;52.242;7.956;2023-05-10T06:08:18;101470.53;;;12.96;100.00
5574;BME280;2563;52.242;7.956;2023-05-10T06:10:43;101476.63;;;12.94;100.00
5574;BME280;2563;52.242;7.956;2023-05-10T06:13:09;101472.19;;;13.01;100.00
5574;BME280;2563;52.242;7.956;2023-05-10T06:15:35;101469.44;;;13.10;100.00
5574;BME280;2563;52.242;7.956;2023-05-10T06:18:00;101469.22;;;13.20;100.00
5574;BME280;2563;52.242;7.956;2023-05-10T06:20:25;101466.53;;;13.25;100.00
5574;BME280;2563;52.242;7.956;2023-05-10T06:22:51;101463.72;;;13.36;100.00
5574;BME280;2563;52.242;7.956;2023-05-10T06:25:16;101456.81;;;13.38;100.00
5574;BME280;2563;52.242;7.956;2023-05-10T06:27:43;101438.69;;;13.39;100.00
5574;BME280;2563;52.242;7.956;2023-05-10T06:30:09;101446.34;;;13.44;100.00
5574;BME280;2563;52.242;7.956;2023-05-10T06:32:35;101439.31;;;13.51;100.00
5574;BME280;2563;52.242;7.956;2023-05-10T06:35:00;101445.13;;;13.60;100.00
5574;BME280;2563;52.242;7.956;2023-05-10T06:37:26;101450.09;;;13.70;100.00
5574;BME280;2563;52.242;7.956;2023-05-10T06:39:51;101456.06;;;13.72;100.00
5574;BME280;2563;52.242;7.956;2023-05-10T06:42:16;101456.97;;;13.69;100.00
5574;BME280;2563;52.242;7.956;2023-05-10T06:44:42;101452.81;;;13.64;100.00
5574;BME280;2563;52.242;7.956;2023-05-10T06:47:08;101460.47;;;13.68;100.00
5574;BME280;2563;52.242;7.956;2023-05-10T06:49:34;101457.06;;;13.65;100.00
5574;BME280;2563;52.242;7.956;2023-05-10T06:51:59;101460.38;;;13.71;100.00
5574;BME280;2563;52.242;7.956;2023-05-10T06:54:24;101461.41;;;13.64;100.00
5574;BME280;2563;52.242;7.956;2023-05-10T06:56:50;101461.66;;;13.91;100.00
5574;BME280;2563;52.242;7.956;2023-05-10T06:59:15;101470.34;;;14.25;100.00
5574;BME280;2563;52.242;7.956;2023-05-10T07:01:42;101456.00;;;14.46;100.00
5574;BME280;2563;52.242;7.956;2023-05-10T07:04:08;101465.06;;;14.64;100.00
5574;BME280;2563;52.242;7.956;2023-05-10T07:06:33;101475.16;;;14.75;100.00
5574;BME280;2563;52.242;7.956;2023-05-10T07:08:59;101467.69;;;14.63;100.00
5574;BME280;2563;52.242;7.956;2023-05-10T07:11:25;101461.75;;;14.58;100.00
5574;BME280;2563;52.242;7.956;2023-05-10T07:13:50;101465.75;;;14.71;100.00
5574;BME280;2563;52.242;7.956;2023-05-10T07:16:16;101466.00;;;14.93;100.00
5574;BME280;2563;52.242;7.956;2023-05-10T07:18:41;101471.38;;;14.87;100.00
5574;BME280;2563;52.242;7.956;2023-05-10T07:21:07;101463.13;;;14.73;100.00
5574;BME280;2563;52.242;7.956;2023-05-10T07:23:32;101458.19;;;14.63;100.00
5574;BME280;2563;52.242;7.956;2023-05-10T07:25:58;101457.78;;;14.44;100.00
5574;BME280;2563;52.242;7.956;2023-05-10T07:28:23;101460.41;;;14.43;100.00
5574;BME280;2563;52.242;7.956;2023-05-10T07:30:51;101455.13;;;14.46;100.00
5574;BME280;2563;52.242;7.956;2023-05-10T07:33:17;101458.53;;;14.48;100.00
5574;BME280;2563;52.242;7.956;2023-05-10T07:35:43;101446.38;;;14.50;100.00
5574;BME280;2563;52.242;7.956;2023-05-10T07:38:08;101441.97;;;14.55;100.00
5574;BME280;2563;52.242;7.956;2023-05-10T07:40:36;101434.25;;;14.52;100.00
5574;BME280;2563;52.242;7.956;2023-05-10T07:43:01;101461.75;;;14.58;100.00
5574;BME280;2563;52.242;7.956;2023-05-10T07:45:27;101491.88;;;14.63;100.00
5574;BME280;2563;52.242;7.956;2023-05-10T07:47:52;101577.16;;;14.73;100.00
5574;BME280;2563;52.242;7.956;2023-05-10T07:50:18;101601.78;;;14.89;100.00
5574;BME280;2563;52.242;7.956;2023-05-10T07:52:43;101686.56;;;14.85;100.00
5574;BME280;2563;52.242;7.956;2023-05-10T07:55:09;101887.09;;;14.83;100.00
5574;BME280;2563;52.242;7.956;2023-05-10T07:57:34;102031.03;;;15.02;100.00
5574;BME280;2563;52.242;7.956;2023-05-10T08:00:00;102126.06;;;15.06;100.00
5574;BME280;2563;52.242;7.956;2023-05-10T08:02:26;100668.69;;;15.30;100.00
5574;BME280;2563;52.242;7.956;2023-05-10T08:04:51;100808.19;;;15.22;100.00
5574;BME280;2563;52.242;7.956;2023-05-10T08:07:17;100865.97;;;15.25;100.00
5574;BME280;2563;52.242;7.956;2023-05-10T08:09:42;100906.88;;;15.41;100.00
5574;BME280;2563;52.242;7.956;2023-05-10T08:12:08;100943.41;;;15.35;100.00
5574;BME280;2563;52.242;7.956;2023-05-10T08:14:33;100966.28;;;15.70;100.00
5574;BME280;2563;52.242;7.956;2023-05-10T08:16:58;100987.28;;;16.30;100.00
5574;BME280;2563;52.242;7.956;2023-05-10T08:19:24;100989.78;;;16.74;100.00
5574;BME280;2563;52.242;7.956;2023-05-10T08:21:49;100983.41;;;17.02;100.00
5574;BME280;2563;52.242;7.956;2023-05-10T08:24:15;101022.84;;;16.93;100.00
5574;BME280;2563;52.242;7.956;2023-05-10T08:26:40;100981.47;;;16.87;100.00
5574;BME280;2563;52.242;7.956;2023-05-10T08:29:06;100961.88;;;16.78;100.00
5574;BME280;2563;52.242;7.956;2023-05-10T08:31:31;100938.81;;;16.70;100.00
5574;BME280;2563;52.242;7.956;2023-05-10T08:33:56;100939.63;;;16.93;100.00
5574;BME280;2563;52.242;7.956;2023-05-10T08:36:22;100909.69;;;17.03;100.00
5574;BME280;2563;52.242;7.956;2023-05-10T08:38:53;100893.09;;;17.25;100.00
5574;BME280;2563;52.242;7.956;2023-05-10T08:41:23;100841.13;;;17.40;100.00
5574;BME280;2563;52.242;7.956;2023-05-10T08:43:51;100782.75;;;17.29;100.00
5574;BME280;2563;52.242;7.956;2023-05-10T08:46:18;100679.53;;;17.29;100.00
5574;BME280;2563;52.242;7.956;2023-05-10T08:48:45;100611.44;;;16.86;100.00
5574;BME280;2563;52.242;7.956;2023-05-10T08:51:17;100586.28;;;16.87;100.00
5574;BME280;2563;52.242;7.956;2023-05-10T08:53:44;100544.97;;;16.80;100.00
5574;BME280;2563;52.242;7.956;2023-05-10T08:56:10;100482.41;;;16.66;100.00
5574;BME280;2563;52.242;7.956;2023-05-10T08:58:36;100437.66;;;16.78;100.00
5574;BME280;2563;52.242;7.956;2023-05-10T09:01:02;100463.22;;;16.69;100.00
5574;BME280;2563;52.242;7.956;2023-05-10T09:03:27;100439.16;;;16.83;100.00
5574;BME280;2563;52.242;7.956;2023-05-10T09:05:53;100437.16;;;16.70;100.00
5574;BME280;2563;52.242;7.956;2023-05-10T09:08:19;100434.25;;;16.76;100.00
5574;BME280;2563;52.242;7.956;2023-05-10T09:10:45;100422.16;;;16.75;100.00
5574;BME280;2563;52.242;7.956;2023-05-10T09:13:13;100376.97;;;16.62;100.00
5574;BME280;2563;52.242;7.956;2023-05-10T09:15:40;100343.66;;;16.69;100.00
5574;BME280;2563;52.242;7.956;2023-05-10T09:18:05;100327.06;;;16.89;100.00
5574;BME280;2563;52.242;7.956;2023-05-10T09:20:31;100318.09;;;17.10;100.00
5574;BME280;2563;52.242;7.956;2023-05-10T09:22:56;100283.19;;;16.98;100.00
5574;BME280;2563;52.242;7.956;2023-05-10T09:25:22;100246.34;;;16.74;100.00
5574;BME280;2563;52.242;7.956;2023-05-10T09:27:48;100207.25;;;16.76;100.00
5574;BME280;2563;52.242;7.956;2023-05-10T09:30:22;100163.34;;;16.71;100.00
5574;BME280;2563;52.242;7.956;2023-05-10T09:32:49;100159.59;;;16.93;100.00
5574;BME280;2563;52.242;7.956;2023-05-10T09:35:19;100114.03;;;17.16;100.00
5574;BME280;2563;52.242;7.956;2023-05-10T09:37:47;100068.25;;;17.42;100.00
5574;BME280;2563;52.242;7.956;2023-05-10T09:40:18;99955.38;;;17.30;100.00
5574;BME280;2563;52.242;7.956;2023-05-10T09:43:02;99915.06;;;17.23;100.00
5574;BME280;2563;52.242;7.956;2023-05-10T09:45:33;99912.06;;;17.71;100.00
5574;BME280;2563;52.242;7.956;2023-05-10T09:47:59;99875.47;;;17.59;100.00
5574;BME280;2563;52.242;7.956;2023-05-10T09:50:27;99849.78;;;17.82;100.00
5574;BME280;2563;52.242;7.956;2023-05-10T09:55:45;99751.59;;;17.84;100.00
5574;BME280;2563;52.242;7.956;2023-05-10T09:58:14;99723.66;;;17.99;100.00
5574;BME280;2563;52.242;7.956;2023-05-10T10:03:13;99610.69;;;17.63;100.00
5574;BME280;2563;52.242;7.956;2023-05-10T10:05:40;99604.06;;;18.09;100.00
5574;BME280;2563;52.242;7.956;2023-05-10T10:08:06;99513.59;;;17.99;100.00
5574;BME280;2563;52.242;7.956;2023-05-10T10:10:32;99511.63;;;18.38;100.00
5574;BME280;2563;52.242;7.956;2023-05-10T10:12:59;99474.22;;;18.86;100.00
5574;BME280;2563;52.242;7.956;2023-05-10T10:15:25;99449.00;;;19.09;100.00
5574;BME280;2563;52.242;7.956;2023-05-10T10:17:51;99373.84;;;19.03;100.00
5574;BME280;2563;52.242;7.956;2023-05-10T10:20:18;99348.19;;;19.30;100.00
5574;BME280;2563;52.242;7.956;2023-05-10T10:22:44;99387.19;;;19.87;100.00
5574;BME280;2563;52.242;7.956;2023-05-10T10:25:11;99437.09;;;20.47;100.00
5574;BME280;2563;52.242;7.956;2023-05-10T10:28:03;99360.09;;;20.51;100.00
5574;BME280;2563;52.242;7.956;2023-05-10T10:30:46;99236.06;;;20.03;100.00
5574;BME280;2563;52.242;7.956;2023-05-10T10:35:45;99191.81;;;20.02;100.00
5574;BME280;2563;52.242;7.956;2023-05-10T10:38:12;99297.75;;;21.47;100.00
5574;BME280;2563;52.242;7.956;2023-05-10T10:40:38;99270.88;;;21.54;100.00
5574;BME280;2563;52.242;7.956;2023-05-10T10:43:24;99168.13;;;20.94;100.00
5574;BME280;2563;52.242;7.956;2023-05-10T10:46:15;99164.25;;;21.27;100.00
5574;BME280;2563;52.242;7.956;2023-05-10T10:48:43;99101.22;;;20.91;100.00
5574;BME280;2563;52.242;7.956;2023-05-10T10:51:13;99106.34;;;20.23;100.00
5574;BME280;2563;52.242;7.956;2023-05-10T10:53:39;99111.03;;;19.58;100.00
5574;BME280;2563;52.242;7.956;2023-05-10T10:56:10;99123.00;;;19.61;100.00
5574;BME280;2563;52.242;7.956;2023-05-10T10:58:39;99145.88;;;19.47;100.00
5574;BME280;2563;52.242;7.956;2023-05-10T11:01:14;99153.91;;;19.76;100.00
5574;BME280;2563;52.242;7.956;2023-05-10T11:03:41;99132.03;;;20.08;100.00
5574;BME280;2563;52.242;7.956;2023-05-10T11:06:29;99177.00;;;19.60;100.00
5574;BME280;2563;52.242;7.956;2023-05-10T11:08:54;99180.56;;;19.59;100.00
5574;BME280;2563;52.242;7.956;2023-05-10T11:11:20;99200.72;;;19.15;100.00
5574;BME280;2563;52.242;7.956;2023-05-10T11:13:46;99207.53;;;19.27;100.00
5574;BME280;2563;52.242;7.956;2023-05-10T11:16:21;99190.63;;;19.64;100.00
5574;BME280;2563;52.242;7.956;2023-05-10T11:18:58;99232.56;;;18.98;100.00
5574;BME280;2563;52.242;7.956;2023-05-10T11:21:24;99227.16;;;19.43;100.00
5574;BME280;2563;52.242;7.956;2023-05-10T11:23:51;99231.19;;;19.47;100.00
5574;BME280;2563;52.242;7.956;2023-05-10T11:26:19;99232.72;;;20.22;100.00
5574;BME280;2563;52.242;7.956;2023-05-10T11:28:48;99206.38;;;20.95;100.00
5574;BME280;2563;52.242;7.956;2023-05-10T11:31:18;99227.66;;;20.30;100.00
5574;BME280;2563;52.242;7.956;2023-05-10T11:33:51;99277.00;;;19.93;100.00
5574;BME280;2563;52.242;7.956;2023-05-10T11:36:18;99293.44;;;19.84;100.00
5574;BME280;2563;52.242;7.956;2023-05-10T11:38:45;99287.88;;;19.98;100.00
5574;BME280;2563;52.242;7.956;2023-05-10T11:41:11;99269.00;;;20.46;100.00
5574;BME280;2563;52.242;7.956;2023-05-10T11:43:40;99275.97;;;20.36;100.00
5574;BME280;2563;52.242;7.956;2023-05-10T11:46:07;99324.19;;;19.80;100.00
5574;BME280;2563;52.242;7.956;2023-05-10T11:48:33;99331.94;;;19.70;100.00
5574;BME280;2563;52.242;7.956;2023-05-10T11:50:58;99316.59;;;19.45;100.00
5574;BME280;2563;52.242;7.956;2023-05-10T11:53:27;99331.63;;;19.52;100.00
5574;BME280;2563;52.242;7.956;2023-05-10T11:55:52;99349.28;;;19.28;100.00
5574;BME280;2563;52.242;7.956;2023-05-10T11:58:18;99372.31;;;19.55;100.00
5574;BME280;2563;52.242;7.956;2023-05-10T12:00:44;99264.00;;;21.53;100.00
5574;BME280;2563;52.242;7.956;2023-05-10T12:03:10;99236.28;;;22.17;100.00
5574;BME280;2563;52.242;7.956;2023-05-10T12:05:36;99299.47;;;20.97;100.00
5574;BME280;2563;52.242;7.956;2023-05-10T12:08:15;99377.25;;;19.81;100.00
5574;BME280;2563;52.242;7.956;2023-05-10T12:10:41;99401.03;;;19.55;100.00
5574;BME280;2563;52.242;7.956;2023-05-10T12:13:13;99352.53;;;20.69;100.00
5574;BME280;2563;52.242;7.956;2023-05-10T12:15:39;99334.44;;;20.96;100.00
5574;BME280;2563;52.242;7.956;2023-05-10T12:18:05;99316.72;;;21.29;100.00
5574;BME280;2563;52.242;7.956;2023-05-10T12:20:31;99377.63;;;20.39;100.00
5574;BME280;2563;52.242;7.956;2023-05-10T12:22:58;99419.88;;;20.55;100.00
5574;BME280;2563;52.242;7.956;2023-05-10T12:25:29;99370.47;;;20.83;100.00
5574;BME280;2563;52.242;7.956;2023-05-10T12:27:56;99386.38;;;20.70;100.00
5574;BME280;2563;52.242;7.956;2023-05-10T12:30:27;99340.81;;;21.33;100.00
5574;BME280;2563;52.242;7.956;2023-05-10T12:32:53;99363.81;;;21.10;100.00
5574;BME280;2563;52.242;7.956;2023-05-10T12:35:19;99426.97;;;20.32;100.00
5574;BME280;2563;52.242;7.956;2023-05-10T12:37:50;99450.84;;;19.74;100.00
5574;BME280;2563;52.242;7.956;2023-05-10T12:40:16;99490.75;;;19.54;100.00
5574;BME280;2563;52.242;7.956;2023-05-10T12:42:41;99463.56;;;20.32;100.00
5574;BME280;2563;52.242;7.956;2023-05-10T12:45:08;99412.97;;;21.16;100.00
5574;BME280;2563;52.242;7.956;2023-05-10T12:47:33;99432.03;;;20.97;100.00
5574;BME280;2563;52.242;7.956;2023-05-10T12:50:00;99446.06;;;20.65;100.00
5574;BME280;2563;52.242;7.956;2023-05-10T12:52:27;99481.56;;;20.89;100.00
5574;BME280;2563;52.242;7.956;2023-05-10T12:54:52;99457.63;;;20.63;100.00
5574;BME280;2563;52.242;7.956;2023-05-10T12:57:18;99515.13;;;19.98;100.00
5574;BME280;2563;52.242;7.956;2023-05-10T12:59:44;99505.78;;;19.50;100.00
5574;BME280;2563;52.242;7.956;2023-05-10T13:02:09;99524.91;;;19.40;100.00
5574;BME280;2563;52.242;7.956;2023-05-10T13:04:35;99527.28;;;19.54;100.00
5574;BME280;2563;52.242;7.956;2023-05-10T13:07:04;99495.22;;;19.63;100.00
5574;BME280;2563;52.242;7.956;2023-05-10T13:09:30;99510.81;;;20.08;100.00
5574;BME280;2563;52.242;7.956;2023-05-10T13:11:55;99442.59;;;20.23;100.00
5574;BME280;2563;52.242;7.956;2023-05-10T13:14:21;99476.59;;;19.79;100.00
5574;BME280;2563;52.242;7.956;2023-05-10T13:16:47;99507.47;;;19.74;100.00
5574;BME280;2563;52.242;7.956;2023-05-10T13:19:16;99531.66;;;19.31;100.00
5574;BME280;2563;52.242;7.956;2023-05-10T13:21:41;99547.00;;;18.89;100.00
5574;BME280;2563;52.242;7.956;2023-05-10T13:24:07;99529.41;;;18.68;100.00